createdAt,value
2019-02-12T00:00:24.803Z,0.00
2019-02-12T00:01:24.791Z,0.00
2019-02-12T00:02:45.779Z,0.00
2019-02-12T00:03:24.766Z,0.00
2019-02-12T00:04:24.787Z,0.00
2019-02-12T00:05:24.765Z,0.00
2019-02-12T00:06:24.747Z,0.00
2019-02-12T00:07:24.727Z,0.00
2019-02-12T00:08:45.714Z,0.00
2019-02-12T00:09:24.702Z,0.00
2019-02-12T00:10:24.694Z,0.00
2019-02-12T00:11:24.706Z,0.00
2019-02-12T00:12:24.669Z,0.00
2019-02-12T00:13:24.664Z,0.00
2019-02-12T00:14:45.681Z,0.00
2019-02-12T00:15:24.641Z,0.00
2019-02-12T00:16:24.630Z,0.00
2019-02-12T00:17:24.626Z,0.00
2019-02-12T00:18:24.609Z,0.00
2019-02-12T00:19:24.594Z,0.00
2019-02-12T00:20:45.594Z,0.00
2019-02-12T00:21:24.575Z,0.00
2019-02-12T00:22:24.569Z,0.00
2019-02-12T00:23:24.552Z,0.00
2019-02-12T00:24:24.543Z,0.00
2019-02-12T00:25:24.530Z,0.00
2019-02-12T00:26:45.527Z,0.00
2019-02-12T00:27:24.514Z,0.00
2019-02-12T00:28:24.507Z,0.00
2019-02-12T00:29:24.493Z,0.00
2019-02-12T00:30:24.481Z,0.00
2019-02-12T00:31:24.471Z,0.00
2019-02-12T00:32:45.465Z,0.00
2019-02-12T00:33:24.452Z,0.00
2019-02-12T00:34:24.439Z,0.00
2019-02-12T00:35:24.427Z,0.00
2019-02-12T00:36:24.415Z,0.00
2019-02-12T00:37:24.418Z,0.00
2019-02-12T00:38:45.406Z,0.00
2019-02-12T00:39:24.388Z,0.00
2019-02-12T00:40:24.376Z,0.00
2019-02-12T00:41:24.368Z,0.00
2019-02-12T00:42:24.356Z,0.00
2019-02-12T00:43:24.347Z,0.00
2019-02-12T00:44:45.352Z,0.00
2019-02-12T00:45:24.328Z,0.00
2019-02-12T00:46:24.316Z,0.00
2019-02-12T00:47:24.304Z,0.00
2019-02-12T00:48:24.290Z,0.00
2019-02-12T00:49:24.285Z,0.00
2019-02-12T00:50:45.278Z,0.00
2019-02-12T00:51:24.263Z,0.00
2019-02-12T00:52:24.251Z,0.00
2019-02-12T00:53:24.246Z,0.00
2019-02-12T00:54:24.336Z,0.00
2019-02-12T00:55:24.214Z,0.00
2019-02-12T00:56:45.223Z,0.00
2019-02-12T00:57:24.205Z,0.00
2019-02-12T00:58:24.190Z,0.00
2019-02-12T00:59:24.173Z,0.00
2019-02-12T01:00:24.169Z,0.00
2019-02-12T01:01:24.156Z,0.00
2019-02-12T01:02:45.153Z,0.00
2019-02-12T01:03:24.147Z,0.00
2019-02-12T01:04:24.122Z,0.00
2019-02-12T01:05:24.108Z,0.00
2019-02-12T01:06:24.103Z,0.00
2019-02-12T01:07:24.096Z,0.00
2019-02-12T01:08:45.086Z,0.00
2019-02-12T01:09:24.070Z,0.00
2019-02-12T01:10:24.058Z,0.00
2019-02-12T01:11:24.046Z,0.00
2019-02-12T01:12:24.046Z,0.00
2019-02-12T01:13:24.026Z,0.00
2019-02-12T01:14:45.025Z,0.00
2019-02-12T01:15:24.001Z,0.00
2019-02-12T01:16:23.993Z,0.00
2019-02-12T01:17:23.982Z,0.00
2019-02-12T01:18:23.979Z,0.00
2019-02-12T01:19:24.022Z,0.00
2019-02-12T01:20:44.952Z,0.00
2019-02-12T01:21:26.315Z,0.00
2019-02-12T01:22:23.927Z,0.00
2019-02-12T01:23:23.912Z,0.00
2019-02-12T01:24:23.907Z,0.00
2019-02-12T01:25:23.892Z,0.00
2019-02-12T01:26:44.892Z,0.00
2019-02-12T01:27:23.871Z,0.00
2019-02-12T01:28:23.867Z,0.00
2019-02-12T01:29:23.844Z,0.00
2019-02-12T01:30:23.833Z,0.00
2019-02-12T01:31:23.842Z,0.00
2019-02-12T01:32:44.832Z,0.00
2019-02-12T01:33:23.811Z,0.00
2019-02-12T01:34:23.791Z,0.00
2019-02-12T01:35:23.787Z,0.00
2019-02-12T01:36:23.776Z,0.00
2019-02-12T01:37:24.020Z,0.00
2019-02-12T01:38:44.755Z,0.00
2019-02-12T01:39:23.748Z,0.00
2019-02-12T01:40:23.729Z,0.00
2019-02-12T01:41:23.726Z,0.00
2019-02-12T01:42:23.711Z,0.00
2019-02-12T01:43:23.697Z,0.00
2019-02-12T01:44:44.694Z,0.00
2019-02-12T01:45:23.677Z,0.00
2019-02-12T01:46:23.670Z,0.00
2019-02-12T01:47:23.656Z,0.00
2019-02-12T01:48:23.648Z,0.00
2019-02-12T01:49:23.633Z,0.00
2019-02-12T01:50:44.630Z,0.00
2019-02-12T01:51:23.608Z,0.00
2019-02-12T01:52:23.594Z,0.00
2019-02-12T01:53:23.584Z,0.00
2019-02-12T01:54:23.570Z,0.00
2019-02-12T01:55:23.559Z,0.00
2019-02-12T01:56:44.559Z,0.00
2019-02-12T01:57:23.539Z,0.00
2019-02-12T01:58:23.531Z,0.00
2019-02-12T01:59:23.523Z,0.00
2019-02-12T02:00:23.506Z,0.00
2019-02-12T02:01:23.497Z,0.00
2019-02-12T02:02:44.487Z,0.00
2019-02-12T02:03:23.477Z,0.00
2019-02-12T02:04:23.461Z,0.00
2019-02-12T02:05:23.452Z,0.00
2019-02-12T02:06:23.445Z,0.00
2019-02-12T02:07:23.432Z,0.00
2019-02-12T02:08:44.424Z,0.00
2019-02-12T02:09:23.400Z,0.00
2019-02-12T02:10:23.392Z,0.00
2019-02-12T02:11:23.380Z,0.00
2019-02-12T02:12:23.377Z,0.00
2019-02-12T02:13:23.362Z,0.00
2019-02-12T02:14:44.365Z,0.00
2019-02-12T02:15:23.336Z,0.00
2019-02-12T02:16:23.326Z,0.00
2019-02-12T02:17:23.309Z,0.00
2019-02-12T02:18:23.315Z,0.00
2019-02-12T02:19:23.293Z,0.00
2019-02-12T02:20:44.287Z,0.00
2019-02-12T02:21:23.267Z,0.00
2019-02-12T02:22:23.259Z,0.00
2019-02-12T02:23:23.245Z,0.00
2019-02-12T02:24:23.230Z,0.00
2019-02-12T02:25:23.235Z,0.00
2019-02-12T02:26:44.221Z,0.00
2019-02-12T02:27:23.502Z,0.00
2019-02-12T02:28:23.189Z,0.00
2019-02-12T02:29:23.182Z,0.00
2019-02-12T02:30:23.160Z,0.00
2019-02-12T02:31:23.180Z,0.00
2019-02-12T02:32:44.150Z,0.00
2019-02-12T02:33:23.171Z,0.00
2019-02-12T02:34:23.121Z,0.00
2019-02-12T02:35:23.114Z,0.00
2019-02-12T02:36:23.111Z,0.00
2019-02-12T02:37:23.082Z,0.00
2019-02-12T02:38:44.083Z,0.00
2019-02-12T02:39:23.068Z,0.00
2019-02-12T02:40:23.054Z,0.00
2019-02-12T02:41:23.042Z,0.00
2019-02-12T02:42:23.035Z,0.00
2019-02-12T02:43:23.018Z,0.00
2019-02-12T02:44:44.014Z,0.00
2019-02-12T02:45:22.997Z,0.00
2019-02-12T02:46:22.980Z,0.00
2019-02-12T02:47:22.965Z,0.00
2019-02-12T02:48:22.960Z,0.00
2019-02-12T02:49:22.951Z,0.00
2019-02-12T02:50:43.942Z,0.00
2019-02-12T02:51:22.947Z,0.00
2019-02-12T02:52:22.914Z,0.00
2019-02-12T02:53:22.905Z,0.00
2019-02-12T02:54:22.892Z,0.00
2019-02-12T02:55:22.891Z,0.00
2019-02-12T02:56:43.869Z,0.00
2019-02-12T02:57:22.863Z,0.00
2019-02-12T02:58:22.847Z,0.00
2019-02-12T02:59:22.832Z,0.00
2019-02-12T03:00:22.822Z,0.00
2019-02-12T03:01:22.807Z,0.00
2019-02-12T03:02:43.812Z,0.00
2019-02-12T03:03:22.789Z,0.00
2019-02-12T03:04:22.774Z,0.00
2019-02-12T03:05:22.761Z,0.00
2019-02-12T03:06:22.757Z,0.00
2019-02-12T03:07:22.736Z,0.00
2019-02-12T03:08:43.837Z,0.00
2019-02-12T03:09:22.725Z,0.00
2019-02-12T03:10:22.706Z,0.00
2019-02-12T03:11:22.698Z,0.00
2019-02-12T03:12:22.681Z,0.00
2019-02-12T03:13:22.673Z,0.00
2019-02-12T03:14:43.660Z,0.00
2019-02-12T03:15:22.642Z,0.00
2019-02-12T03:16:22.631Z,0.00
2019-02-12T03:17:22.641Z,0.00
2019-02-12T03:18:22.619Z,0.00
2019-02-12T03:19:22.649Z,0.00
2019-02-12T03:20:43.601Z,0.00
2019-02-12T03:21:22.575Z,0.00
2019-02-12T03:22:22.568Z,0.00
2019-02-12T03:23:22.558Z,0.00
2019-02-12T03:24:22.540Z,0.00
2019-02-12T03:25:22.544Z,0.00
2019-02-12T03:26:43.518Z,0.00
2019-02-12T03:27:22.512Z,0.00
2019-02-12T03:28:22.502Z,0.00
2019-02-12T03:29:22.489Z,0.00
2019-02-12T03:30:22.477Z,0.00
2019-02-12T03:31:22.469Z,0.00
2019-02-12T03:32:43.458Z,0.00
2019-02-12T03:33:22.461Z,0.00
2019-02-12T03:34:22.430Z,0.00
2019-02-12T03:35:22.428Z,0.00
2019-02-12T03:36:22.407Z,0.00
2019-02-12T03:37:22.393Z,0.00
2019-02-12T03:38:43.391Z,0.00
2019-02-12T03:39:22.375Z,0.00
2019-02-12T03:40:22.366Z,0.00
2019-02-12T03:41:22.352Z,0.00
2019-02-12T03:42:22.333Z,0.00
2019-02-12T03:43:22.331Z,0.00
2019-02-12T03:44:43.321Z,0.00
2019-02-12T03:45:22.310Z,0.00
2019-02-12T03:46:22.290Z,0.00
2019-02-12T03:47:22.281Z,0.00
2019-02-12T03:48:22.273Z,0.00
2019-02-12T03:49:22.260Z,0.00
2019-02-12T03:50:43.260Z,0.00
2019-02-12T03:51:22.238Z,0.00
2019-02-12T03:52:22.229Z,0.00
2019-02-12T03:53:22.218Z,0.00
2019-02-12T03:54:22.208Z,0.00
2019-02-12T03:55:22.198Z,0.00
2019-02-12T03:56:43.189Z,0.00
2019-02-12T03:57:22.175Z,0.00
2019-02-12T03:58:22.160Z,0.00
2019-02-12T03:59:22.150Z,0.00
2019-02-12T04:00:22.138Z,0.00
2019-02-12T04:01:22.135Z,0.00
2019-02-12T04:02:43.128Z,0.00
2019-02-12T04:03:22.108Z,0.00
2019-02-12T04:04:22.091Z,0.00
2019-02-12T04:05:22.101Z,0.00
2019-02-12T04:06:22.078Z,0.00
2019-02-12T04:07:22.061Z,0.00
2019-02-12T04:08:44.074Z,0.00
2019-02-12T04:09:22.037Z,0.00
2019-02-12T04:10:22.027Z,0.00
2019-02-12T04:11:24.291Z,0.00
2019-02-12T04:12:21.995Z,0.00
2019-02-12T04:13:21.989Z,0.00
2019-02-12T04:14:42.986Z,0.00
2019-02-12T04:15:21.976Z,0.00
2019-02-12T04:16:21.960Z,0.00
2019-02-12T04:17:21.945Z,0.00
2019-02-12T04:18:21.937Z,0.00
2019-02-12T04:19:21.929Z,0.00
2019-02-12T04:20:42.914Z,0.00
2019-02-12T04:21:21.897Z,0.00
2019-02-12T04:22:22.917Z,0.00
2019-02-12T04:23:21.884Z,0.00
2019-02-12T04:24:21.862Z,0.00
2019-02-12T04:25:21.848Z,0.00
2019-02-12T04:26:42.844Z,0.00
2019-02-12T04:27:21.829Z,0.00
2019-02-12T04:28:21.824Z,0.00
2019-02-12T04:29:21.808Z,0.00
2019-02-12T04:30:21.820Z,0.00
2019-02-12T04:31:21.787Z,0.00
2019-02-12T04:32:42.780Z,0.00
2019-02-12T04:33:21.761Z,0.00
2019-02-12T04:34:21.796Z,0.00
2019-02-12T04:35:21.746Z,0.00
2019-02-12T04:36:21.729Z,0.00
2019-02-12T04:37:21.714Z,0.00
2019-02-12T04:38:42.714Z,0.00
2019-02-12T04:39:21.693Z,0.00
2019-02-12T04:40:21.686Z,0.00
2019-02-12T04:41:21.670Z,0.00
2019-02-12T04:42:21.659Z,0.00
2019-02-12T04:43:21.658Z,0.00
2019-02-12T04:44:42.636Z,0.00
2019-02-12T04:45:21.623Z,0.00
2019-02-12T04:46:21.613Z,0.00
2019-02-12T04:47:21.602Z,0.00
2019-02-12T04:48:21.593Z,0.00
2019-02-12T04:49:21.587Z,0.00
2019-02-12T04:50:42.583Z,0.00
2019-02-12T04:51:21.561Z,0.00
2019-02-12T04:52:21.537Z,0.00
2019-02-12T04:53:21.537Z,0.00
2019-02-12T04:54:21.521Z,0.00
2019-02-12T04:55:21.515Z,0.00
2019-02-12T04:56:42.505Z,0.00
2019-02-12T04:57:21.489Z,0.00
2019-02-12T04:58:21.757Z,0.00
2019-02-12T04:59:21.462Z,0.00
2019-02-12T05:00:21.462Z,0.00
2019-02-12T05:01:21.451Z,0.00
2019-02-12T05:02:42.438Z,0.00
2019-02-12T05:03:21.430Z,0.00
2019-02-12T05:04:21.408Z,0.00
2019-02-12T05:05:21.401Z,0.00
2019-02-12T05:06:21.391Z,0.00
2019-02-12T05:07:21.391Z,0.00
2019-02-12T05:08:42.364Z,0.00
2019-02-12T05:09:21.348Z,0.00
2019-02-12T05:10:21.345Z,0.00
2019-02-12T05:11:21.327Z,0.00
2019-02-12T05:12:21.318Z,0.00
2019-02-12T05:13:21.332Z,0.00
2019-02-12T05:14:42.308Z,0.00
2019-02-12T05:15:21.287Z,0.00
2019-02-12T05:16:21.273Z,0.00
2019-02-12T05:17:21.269Z,0.00
2019-02-12T05:18:21.274Z,0.00
2019-02-12T05:19:21.247Z,0.00
2019-02-12T05:20:42.235Z,0.00
2019-02-12T05:21:21.215Z,0.00
2019-02-12T05:22:21.215Z,0.00
2019-02-12T05:23:21.247Z,0.00
2019-02-12T05:24:21.186Z,0.00
2019-02-12T05:25:21.176Z,0.00
2019-02-12T05:26:42.169Z,0.00
2019-02-12T05:27:21.151Z,0.00
2019-02-12T05:28:21.142Z,0.00
2019-02-12T05:29:21.129Z,0.00
2019-02-12T05:30:21.123Z,0.00
2019-02-12T05:31:21.101Z,0.00
2019-02-12T05:32:42.103Z,0.00
2019-02-12T05:33:21.098Z,0.00
2019-02-12T05:34:21.080Z,0.00
2019-02-12T05:35:21.079Z,0.00
2019-02-12T05:36:21.051Z,0.00
2019-02-12T05:37:21.042Z,0.00
2019-02-12T05:38:42.049Z,0.00
2019-02-12T05:39:21.021Z,0.00
2019-02-12T05:40:21.024Z,0.00
2019-02-12T05:41:21.002Z,0.00
2019-02-12T05:42:20.983Z,0.00
2019-02-12T05:43:20.981Z,0.00
2019-02-12T05:44:41.972Z,0.00
2019-02-12T05:45:20.955Z,0.00
2019-02-12T05:46:20.934Z,0.00
2019-02-12T05:47:20.925Z,0.00
2019-02-12T05:48:21.883Z,0.00
2019-02-12T05:49:23.025Z,0.00
2019-02-12T05:50:41.897Z,0.00
2019-02-12T05:51:20.882Z,0.00
2019-02-12T05:52:20.878Z,0.00
2019-02-12T05:53:20.881Z,0.00
2019-02-12T05:54:20.866Z,0.00
2019-02-12T05:55:21.678Z,0.00
2019-02-12T05:56:41.835Z,0.00
2019-02-12T05:57:20.832Z,0.00
2019-02-12T05:58:20.809Z,0.00
2019-02-12T05:59:20.791Z,0.00
2019-02-12T06:00:20.791Z,0.00
2019-02-12T06:01:20.771Z,0.00
2019-02-12T06:02:41.773Z,0.00
2019-02-12T06:03:20.790Z,0.00
2019-02-12T06:04:20.746Z,0.00
2019-02-12T06:05:20.735Z,0.00
2019-02-12T06:06:20.728Z,0.00
2019-02-12T06:07:20.708Z,4.00
2019-02-12T06:08:41.989Z,0.00
2019-02-12T06:09:20.693Z,4.00
2019-02-12T06:10:20.684Z,8.00
2019-02-12T06:11:20.669Z,8.00
2019-02-12T06:12:20.652Z,8.00
2019-02-12T06:13:20.647Z,12.00
2019-02-12T06:14:41.629Z,12.00
2019-02-12T06:15:20.620Z,12.00
2019-02-12T06:16:20.607Z,12.00
2019-02-12T06:17:20.599Z,16.00
2019-02-12T06:18:20.591Z,20.00
2019-02-12T06:19:20.578Z,28.00
2019-02-12T06:20:41.567Z,28.00
2019-02-12T06:21:20.551Z,36.00
2019-02-12T06:22:20.539Z,44.00
2019-02-12T06:23:20.532Z,52.00
2019-02-12T06:24:20.532Z,60.00
2019-02-12T06:25:20.512Z,68.00
2019-02-12T06:26:41.506Z,76.00
2019-02-12T06:27:20.491Z,88.00
2019-02-12T06:28:20.478Z,100.00
2019-02-12T06:29:20.481Z,96.00
2019-02-12T06:30:20.456Z,112.00
2019-02-12T06:31:20.439Z,120.00
2019-02-12T06:32:41.440Z,144.00
2019-02-12T06:33:20.429Z,152.00
2019-02-12T06:34:20.424Z,160.00
2019-02-12T06:35:20.400Z,184.00
2019-02-12T06:36:20.388Z,204.00
2019-02-12T06:37:20.370Z,240.00
2019-02-12T06:38:41.375Z,260.00
2019-02-12T06:39:21.340Z,304.00
2019-02-12T06:40:20.349Z,352.00
2019-02-12T06:41:20.332Z,396.00
2019-02-12T06:42:20.315Z,444.00
2019-02-12T06:43:20.314Z,444.00
2019-02-12T06:44:41.305Z,508.00
2019-02-12T06:45:20.285Z,556.00
2019-02-12T06:46:20.324Z,548.00
2019-02-12T06:47:20.278Z,568.00
2019-02-12T06:48:20.265Z,568.00
2019-02-12T06:49:20.241Z,612.00
2019-02-12T06:50:41.233Z,712.00
2019-02-12T06:51:20.214Z,740.00
2019-02-12T06:52:20.212Z,776.00
2019-02-12T06:53:20.199Z,888.00
2019-02-12T06:54:20.187Z,952.00
2019-02-12T06:55:20.175Z,1008.00
2019-02-12T06:56:41.170Z,1104.00
2019-02-12T06:57:20.159Z,1172.00
2019-02-12T06:58:20.145Z,1336.00
2019-02-12T06:59:20.131Z,1460.00
2019-02-12T07:00:20.125Z,1612.00
2019-02-12T07:01:20.115Z,1704.00
2019-02-12T07:02:41.911Z,1760.00
2019-02-12T07:03:20.094Z,1848.00
2019-02-12T07:04:20.080Z,1972.00
2019-02-12T07:05:20.076Z,2072.00
2019-02-12T07:06:20.058Z,2152.00
2019-02-12T07:07:20.048Z,2216.00
2019-02-12T07:08:41.045Z,2356.00
2019-02-12T07:09:20.027Z,2480.00
2019-02-12T07:10:20.019Z,2620.00
2019-02-12T07:11:20.007Z,2684.00
2019-02-12T07:12:20.004Z,2740.00
2019-02-12T07:13:19.991Z,2800.00
2019-02-12T07:14:40.979Z,2904.00
2019-02-12T07:15:19.972Z,2880.00
2019-02-12T07:16:19.955Z,2824.00
2019-02-12T07:17:19.947Z,3040.00
2019-02-12T07:18:19.933Z,2812.00
2019-02-12T07:19:19.925Z,2740.00
2019-02-12T07:20:40.914Z,2752.00
2019-02-12T07:21:19.962Z,2796.00
2019-02-12T07:22:19.894Z,2764.00
2019-02-12T07:23:21.451Z,2776.00
2019-02-12T07:24:19.881Z,2824.00
2019-02-12T07:25:19.863Z,2876.00
2019-02-12T07:26:40.855Z,3444.00
2019-02-12T07:27:19.843Z,3620.00
2019-02-12T07:28:19.840Z,3748.00
2019-02-12T07:29:21.829Z,3688.00
2019-02-12T07:30:19.811Z,3880.00
2019-02-12T07:31:19.797Z,3832.00
2019-02-12T07:32:40.802Z,4172.00
2019-02-12T07:33:19.789Z,4032.00
2019-02-12T07:34:19.792Z,4460.00
2019-02-12T07:35:19.763Z,4508.00
2019-02-12T07:36:19.758Z,4432.00
2019-02-12T07:37:19.740Z,4944.00
2019-02-12T07:38:40.730Z,4892.00
2019-02-12T07:39:19.726Z,4752.00
2019-02-12T07:40:19.710Z,5160.00
2019-02-12T07:41:20.472Z,5244.00
2019-02-12T07:42:19.694Z,5216.00
2019-02-12T07:43:19.684Z,4836.00
2019-02-12T07:44:40.677Z,4792.00
2019-02-12T07:45:19.663Z,4988.00
2019-02-12T07:46:19.656Z,4936.00
2019-02-12T07:47:19.641Z,4728.00
2019-02-12T07:48:19.631Z,4932.00
2019-02-12T07:49:19.640Z,5000.00
2019-02-12T07:50:40.607Z,5588.00
2019-02-12T07:51:19.605Z,5428.00
2019-02-12T07:52:19.604Z,5544.00
2019-02-12T07:53:19.588Z,5736.00
2019-02-12T07:54:19.585Z,5720.00
2019-02-12T07:55:19.571Z,5696.00
2019-02-12T07:56:40.573Z,5692.00
2019-02-12T07:57:21.665Z,5764.00
2019-02-12T07:58:19.541Z,5620.00
2019-02-12T07:59:19.536Z,4920.00
2019-02-12T08:00:19.526Z,5548.00
2019-02-12T08:01:19.501Z,5844.00
2019-02-12T08:02:40.511Z,6028.00
2019-02-12T08:03:19.502Z,6024.00
2019-02-12T08:04:19.492Z,6084.00
2019-02-12T08:05:19.479Z,6012.00
2019-02-12T08:06:19.470Z,5512.00
2019-02-12T08:07:19.456Z,5668.00
2019-02-12T08:08:40.457Z,5460.00
2019-02-12T08:09:19.441Z,5296.00
2019-02-12T08:10:19.446Z,5848.00
2019-02-12T08:11:19.423Z,5632.00
2019-02-12T08:12:19.430Z,5072.00
2019-02-12T08:13:19.412Z,4664.00
2019-02-12T08:14:40.405Z,6032.00
2019-02-12T08:15:19.394Z,7172.00
2019-02-12T08:16:19.380Z,6252.00
2019-02-12T08:17:19.381Z,8376.00
2019-02-12T08:18:19.370Z,10032.00
2019-02-12T08:19:19.351Z,9728.00
2019-02-12T08:20:40.350Z,9352.00
2019-02-12T08:21:19.341Z,8988.00
2019-02-12T08:22:19.328Z,8036.00
2019-02-12T08:23:19.315Z,6984.00
2019-02-12T08:24:19.310Z,7900.00
2019-02-12T08:25:19.306Z,7644.00
2019-02-12T08:26:40.303Z,8020.00
2019-02-12T08:27:19.293Z,8080.00
2019-02-12T08:28:19.282Z,8216.00
2019-02-12T08:29:19.271Z,8268.00
2019-02-12T08:30:19.275Z,8860.00
2019-02-12T08:31:19.254Z,10252.00
2019-02-12T08:32:40.254Z,11692.00
2019-02-12T08:33:19.236Z,9132.00
2019-02-12T08:34:19.243Z,9240.00
2019-02-12T08:35:19.232Z,10276.00
2019-02-12T08:36:19.222Z,11332.00
2019-02-12T08:37:19.210Z,12364.00
2019-02-12T08:38:40.205Z,14700.00
2019-02-12T08:39:19.191Z,14556.00
2019-02-12T08:40:19.191Z,14264.00
2019-02-12T08:41:19.171Z,14376.00
2019-02-12T08:42:19.168Z,17952.00
2019-02-12T08:43:19.164Z,15248.00
2019-02-12T08:44:40.166Z,14984.00
2019-02-12T08:45:19.196Z,11288.00
2019-02-12T08:46:19.146Z,15544.00
2019-02-12T08:47:19.143Z,17088.00
2019-02-12T08:48:19.131Z,13612.00
2019-02-12T08:49:19.142Z,10380.00
2019-02-12T08:50:40.131Z,11324.00
2019-02-12T08:51:19.113Z,10088.00
2019-02-12T08:52:19.108Z,10740.00
2019-02-12T08:53:19.103Z,11080.00
2019-02-12T08:54:19.102Z,12156.00
2019-02-12T08:55:19.087Z,11788.00
2019-02-12T08:56:40.093Z,11272.00
2019-02-12T08:57:19.079Z,13100.00
2019-02-12T08:58:19.074Z,12804.00
2019-02-12T08:59:19.077Z,12720.00
2019-02-12T09:00:19.064Z,12768.00
2019-02-12T09:01:19.061Z,14456.00
2019-02-12T09:02:40.070Z,14976.00
2019-02-12T09:03:19.058Z,10184.00
2019-02-12T09:04:19.055Z,9832.00
2019-02-12T09:05:19.042Z,9732.00
2019-02-12T09:06:19.047Z,10752.00
2019-02-12T09:07:19.035Z,12552.00
2019-02-12T09:08:40.074Z,11836.00
2019-02-12T09:09:19.275Z,11608.00
2019-02-12T09:10:19.042Z,10648.00
2019-02-12T09:11:19.013Z,10372.00
2019-02-12T09:12:19.015Z,12704.00
2019-02-12T09:13:19.008Z,14760.00
2019-02-12T09:14:40.012Z,14468.00
2019-02-12T09:15:19.000Z,13768.00
2019-02-12T09:16:18.992Z,12288.00
2019-02-12T09:17:18.998Z,9180.00
2019-02-12T09:18:19.001Z,10976.00
2019-02-12T09:19:18.983Z,13264.00
2019-02-12T09:20:39.991Z,11924.00
2019-02-12T09:21:18.985Z,14092.00
2019-02-12T09:22:18.971Z,10656.00
2019-02-12T09:23:18.972Z,11340.00
2019-02-12T09:24:18.968Z,14788.00
2019-02-12T09:25:18.970Z,14632.00
2019-02-12T09:26:39.970Z,14016.00
2019-02-12T09:27:18.967Z,21312.00
2019-02-12T09:28:19.009Z,24096.00
2019-02-12T09:29:18.955Z,26176.00
2019-02-12T09:30:18.955Z,22464.00
2019-02-12T09:31:18.944Z,18528.00
2019-02-12T09:32:39.946Z,19392.00
2019-02-12T09:33:18.937Z,20768.00
2019-02-12T09:34:18.948Z,21440.00
2019-02-12T09:35:18.931Z,17952.00
2019-02-12T09:36:18.928Z,14068.00
2019-02-12T09:37:18.927Z,12976.00
2019-02-12T09:38:39.931Z,14312.00
2019-02-12T09:39:18.915Z,15540.00
2019-02-12T09:40:19.560Z,15640.00
2019-02-12T09:41:18.918Z,14648.00
2019-02-12T09:42:18.912Z,13384.00
2019-02-12T09:43:18.906Z,13320.00
2019-02-12T09:44:39.915Z,14400.00
2019-02-12T09:45:18.912Z,15556.00
2019-02-12T09:46:18.913Z,15436.00
2019-02-12T09:47:18.888Z,14684.00
2019-02-12T09:48:18.902Z,15328.00
2019-02-12T09:49:18.881Z,15992.00
2019-02-12T09:50:39.882Z,15876.00
2019-02-12T09:51:18.873Z,15332.00
2019-02-12T09:52:18.875Z,15552.00
2019-02-12T09:53:18.864Z,15728.00
2019-02-12T09:54:18.861Z,15512.00
2019-02-12T09:55:18.868Z,15476.00
2019-02-12T09:56:39.866Z,16528.00
2019-02-12T09:57:18.854Z,18112.00
2019-02-12T09:58:18.837Z,18912.00
2019-02-12T09:59:18.853Z,18592.00
2019-02-12T10:00:18.826Z,16140.00
2019-02-12T10:01:18.833Z,14628.00
2019-02-12T10:02:39.834Z,14808.00
2019-02-12T10:03:18.826Z,16128.00
2019-02-12T10:04:18.816Z,17240.00
2019-02-12T10:05:18.810Z,17696.00
2019-02-12T10:06:21.967Z,17824.00
2019-02-12T10:07:18.798Z,17856.00
2019-02-12T10:08:39.796Z,18016.00
2019-02-12T10:09:18.786Z,18272.00
2019-02-12T10:10:18.786Z,18656.00
2019-02-12T10:11:18.783Z,19168.00
2019-02-12T10:12:18.790Z,19328.00
2019-02-12T10:13:18.765Z,20160.00
2019-02-12T10:14:39.773Z,20736.00
2019-02-12T10:15:18.769Z,20832.00
2019-02-12T10:16:18.753Z,20416.00
2019-02-12T10:17:18.756Z,19904.00
2019-02-12T10:18:18.743Z,19360.00
2019-02-12T10:19:18.740Z,18848.00
2019-02-12T10:20:39.747Z,18368.00
2019-02-12T10:21:18.732Z,18400.00
2019-02-12T10:22:18.719Z,18240.00
2019-02-12T10:23:18.724Z,17984.00
2019-02-12T10:24:19.930Z,18016.00
2019-02-12T10:25:18.726Z,17856.00
2019-02-12T10:26:39.711Z,17664.00
2019-02-12T10:27:18.706Z,17568.00
2019-02-12T10:28:18.696Z,17408.00
2019-02-12T10:29:18.713Z,17208.00
2019-02-12T10:30:18.691Z,17028.00
2019-02-12T10:31:18.687Z,16888.00
2019-02-12T10:32:39.688Z,16852.00
2019-02-12T10:33:18.673Z,16428.00
2019-02-12T10:34:18.672Z,15916.00
2019-02-12T10:35:18.667Z,15464.00
2019-02-12T10:36:18.659Z,15572.00
2019-02-12T10:37:18.655Z,14988.00
2019-02-12T10:38:39.663Z,14632.00
2019-02-12T10:39:18.648Z,14344.00
2019-02-12T10:40:18.646Z,15052.00
2019-02-12T10:41:18.631Z,14144.00
2019-02-12T10:42:18.658Z,12948.00
2019-02-12T10:43:18.630Z,14068.00
2019-02-12T10:44:39.635Z,13744.00
2019-02-12T10:45:18.622Z,13404.00
2019-02-12T10:46:18.609Z,12900.00
2019-02-12T10:47:18.621Z,13264.00
2019-02-12T10:48:18.609Z,14104.00
2019-02-12T10:49:18.614Z,14512.00
2019-02-12T10:50:39.621Z,15160.00
2019-02-12T10:51:18.597Z,15108.00
2019-02-12T10:52:18.590Z,15344.00
2019-02-12T10:53:18.588Z,16332.00
2019-02-12T10:54:18.587Z,16500.00
2019-02-12T10:55:18.584Z,16728.00
2019-02-12T10:56:39.586Z,18368.00
2019-02-12T10:57:18.579Z,17760.00
2019-02-12T10:58:18.566Z,15548.00
2019-02-12T10:59:18.571Z,15652.00
2019-02-12T11:00:18.569Z,18304.00
2019-02-12T11:01:18.567Z,18624.00
2019-02-12T11:02:39.581Z,17760.00
2019-02-12T11:03:18.569Z,16504.00
2019-02-12T11:04:18.559Z,19200.00
2019-02-12T11:05:18.571Z,19072.00
2019-02-12T11:06:18.574Z,18752.00
2019-02-12T11:07:18.560Z,18816.00
2019-02-12T11:08:39.577Z,18688.00
2019-02-12T11:09:18.558Z,18688.00
2019-02-12T11:10:18.556Z,18272.00
2019-02-12T11:11:18.554Z,18432.00
2019-02-12T11:12:18.554Z,18688.00
2019-02-12T11:13:18.550Z,18560.00
2019-02-12T11:14:39.563Z,18432.00
2019-02-12T11:15:18.555Z,18144.00
2019-02-12T11:16:18.548Z,17920.00
2019-02-12T11:17:18.552Z,17300.00
2019-02-12T11:18:18.553Z,16856.00
2019-02-12T11:19:18.537Z,15948.00
2019-02-12T11:20:39.552Z,15668.00
2019-02-12T11:21:18.540Z,15336.00
2019-02-12T11:22:18.549Z,14960.00
2019-02-12T11:23:18.531Z,15080.00
2019-02-12T11:24:18.542Z,15876.00
2019-02-12T11:25:18.537Z,16484.00
2019-02-12T11:26:39.546Z,16980.00
2019-02-12T11:27:18.524Z,17388.00
2019-02-12T11:28:18.524Z,17920.00
2019-02-12T11:29:18.535Z,17920.00
2019-02-12T11:30:18.530Z,17792.00
2019-02-12T11:31:18.514Z,17508.00
2019-02-12T11:32:39.517Z,17376.00
2019-02-12T11:33:18.507Z,17360.00
2019-02-12T11:34:18.504Z,17728.00
2019-02-12T11:35:18.507Z,17984.00
2019-02-12T11:36:18.523Z,18240.00
2019-02-12T11:37:18.498Z,18496.00
2019-02-12T11:38:39.503Z,18752.00
2019-02-12T11:39:19.665Z,19392.00
2019-02-12T11:40:18.487Z,19808.00
2019-02-12T11:41:18.479Z,20288.00
2019-02-12T11:42:18.487Z,20736.00
2019-02-12T11:43:18.482Z,20544.00
2019-02-12T11:44:39.479Z,20352.00
2019-02-12T11:45:18.478Z,20128.00
2019-02-12T11:46:18.471Z,19904.00
2019-02-12T11:47:18.470Z,19648.00
2019-02-12T11:48:18.460Z,19424.00
2019-02-12T11:49:18.457Z,19008.00
2019-02-12T11:50:39.461Z,18304.00
2019-02-12T11:51:18.451Z,17352.00
2019-02-12T11:52:18.451Z,16420.00
2019-02-12T11:53:18.444Z,15560.00
2019-02-12T11:54:18.450Z,14664.00
2019-02-12T11:55:18.447Z,13608.00
2019-02-12T11:56:39.442Z,12712.00
2019-02-12T11:57:18.434Z,12212.00
2019-02-12T11:58:18.423Z,11920.00
2019-02-12T11:59:18.423Z,11520.00
2019-02-12T12:00:18.427Z,11064.00
2019-02-12T12:01:18.414Z,10600.00
2019-02-12T12:02:42.007Z,10280.00
2019-02-12T12:03:18.410Z,10228.00
2019-02-12T12:04:18.407Z,10516.00
2019-02-12T12:05:18.404Z,11012.00
2019-02-12T12:06:18.401Z,11376.00
2019-02-12T12:07:18.392Z,11796.00
2019-02-12T12:08:39.389Z,12792.00
2019-02-12T12:09:18.386Z,14180.00
2019-02-12T12:10:18.381Z,15572.00
2019-02-12T12:11:18.375Z,16680.00
2019-02-12T12:12:18.381Z,17380.00
2019-02-12T12:13:18.359Z,17420.00
2019-02-12T12:14:39.380Z,16844.00
2019-02-12T12:15:18.358Z,16344.00
2019-02-12T12:16:18.357Z,16428.00
2019-02-12T12:17:18.348Z,16716.00
2019-02-12T12:18:18.344Z,16600.00
2019-02-12T12:19:18.333Z,16400.00
2019-02-12T12:20:39.334Z,16512.00
2019-02-12T12:21:18.332Z,16628.00
2019-02-12T12:22:18.324Z,16528.00
2019-02-12T12:23:18.319Z,16044.00
2019-02-12T12:24:18.309Z,15876.00
2019-02-12T12:25:18.308Z,15984.00
2019-02-12T12:26:39.320Z,16096.00
2019-02-12T12:27:18.291Z,16140.00
2019-02-12T12:28:18.289Z,16132.00
2019-02-12T12:29:18.945Z,15968.00
2019-02-12T12:30:19.045Z,15612.00
2019-02-12T12:31:18.271Z,15120.00
2019-02-12T12:32:39.284Z,14592.00
2019-02-12T12:33:18.262Z,14160.00
2019-02-12T12:34:18.265Z,13776.00